Latest Weather Observations for Bega

IDN60801

Issued at 8:33 am EST Saturday 5 September 2015 (issued every 30 minutes, with the page automatically refreshed every 10 minutes)

About weather observations | Map of weather stations | Latest weather observations for NSW | Other Formats
Station Details ID: 069139 Name: BEGA AWS Lat: -36.67 Lon: 149.82 Height: 41.0 m
Data from the previous 72 hours. | See also: Recent months at Bega
Date/Time
EST
Temp
°C
App
Temp
°C
Dew
Point
Rel
Hum
%
Delta-T
°C
Wind Press
QNH
hPa
Press
MSL
hPa
Rain
since 9 am
mm
Dir
 
Spd
km/h
Gust
km/h
Spd
kts
Gust
kts
05/08:30am 6.8 5.7 6.7 99 0.0 NNE 2 6 1 3 1023.7 1023.7 0.2
05/08:00am 5.5 4.5 5.4 99 0.0 CALM 0 0 0 0 1023.4 1023.4 0.2
05/07:30am 4.2 2.9 4.1 99 0.0 CALM 0 0 0 0 1023.1 1023.1 0.0
05/07:00am 3.7 2.3 3.6 99 0.0 CALM 0 0 0 0 1022.8 1022.8 0.0
05/06:30am 3.5 2.1 3.4 99 0.0 CALM 0 0 0 0 1022.5 1022.5 0.0
05/06:00am 3.6 2.2 3.5 99 0.0 CALM 0 0 0 0 1022.1 1022.1 0.0
05/05:30am 3.9 2.5 3.8 99 0.0 CALM 0 0 0 0 1021.8 1021.8 0.0
05/05:00am 4.3 3.0 4.2 99 0.0 CALM 0 0 0 0 1021.4 1021.4 0.0
05/04:30am 4.6 3.4 4.5 99 0.0 CALM 0 0 0 0 1021.3 1021.3 0.0
05/04:00am 4.5 3.3 4.4 99 0.0 CALM 0 0 0 0 1021.1 1021.1 0.0
05/03:30am 5.6 4.6 5.5 99 0.0 CALM 0 0 0 0 1021.0 1021.0 0.0
05/03:00am 6.4 5.2 6.3 99 0.0 SSW 2 6 1 3 1021.1 1021.1 0.0
05/02:30am 7.0 6.3 6.9 99 0.0 CALM 0 0 0 0 1021.3 1021.3 0.0
05/02:00am 6.2 4.4 5.6 96 0.3 ESE 4 7 2 4 1021.6 1021.6 0.0
05/01:30am 7.8 7.2 7.4 97 0.2 CALM 0 0 0 0 1021.8 1021.8 0.0
05/01:00am 8.6 7.7 7.7 94 0.4 WSW 2 7 1 4 1022.0 1022.0 0.0
05/12:30am 9.4 9.1 8.6 95 0.4 CALM 0 0 0 0 1022.2 1022.2 0.0
05/12:00am 10.4 10.3 9.3 93 0.5 CALM 0 0 0 0 1022.3 1022.3 0.0
 
Date/Time
EST
Temp
°C
App
Temp
°C
Dew
Point
Rel
Hum
%
Delta-T
°C
Wind Press
QNH
hPa
Press
MSL
hPa
Rain
since 9 am
mm
Dir
 
Spd
km/h
Gust
km/h
Spd
kts
Gust
kts
04/11:30pm 10.7 10.6 9.5 92 0.6 CALM 0 0 0 0 1022.5 1022.5 0.0
04/11:00pm 11.0 10.9 9.4 90 0.8 CALM 0 0 0 0 1022.6 1022.6 0.0
04/10:30pm 11.2 11.0 9.1 87 1.0 CALM 0 0 0 0 1022.7 1022.7 0.0
04/10:00pm 11.4 10.9 9.3 87 1.0 S 2 6 1 3 1022.8 1022.8 0.0
04/09:30pm 11.3 10.1 9.6 89 0.9 SE 6 7 3 4 1022.6 1022.6 0.0
04/09:00pm 11.4 10.6 9.7 89 0.9 S 4 9 2 5 1022.5 1022.5 0.0
04/08:30pm 11.4 10.5 9.1 86 1.2 N 4 9 2 5 1022.2 1022.2 0.0
04/08:00pm 12.1 11.8 8.8 80 1.6 CALM 0 0 0 0 1022.3 1022.3 0.0
04/07:30pm 12.2 12.0 9.0 81 1.6 CALM 0 0 0 0 1022.1 1022.1 0.0
04/07:00pm 12.2 12.0 9.0 81 1.6 CALM 0 0 0 0 1021.9 1021.9 0.0
04/06:30pm 12.4 11.0 8.7 78 1.8 ENE 6 6 3 3 1021.9 1021.9 0.0
04/06:00pm 12.3 10.8 8.6 78 1.8 NE 6 7 3 4 1021.6 1021.6 0.0
04/05:30pm 12.6 10.7 8.9 78 1.9 ENE 9 11 5 6 1021.2 1021.2 0.0
04/05:00pm 12.9 10.5 8.6 75 2.1 ENE 11 15 6 8 1021.0 1021.0 0.0
04/04:30pm 13.3 10.1 8.4 72 2.4 E 15 20 8 11 1020.8 1020.8 0.0
04/04:00pm 14.2 10.7 8.8 70 2.7 ENE 17 20 9 11 1020.6 1020.6 0.0
04/03:30pm 14.5 10.9 8.2 66 3.2 E 17 22 9 12 1020.5 1020.5 0.0
04/03:00pm 14.4 10.7 8.1 66 3.1 ESE 17 24 9 13 1020.4 1020.4 0.0
04/02:30pm 16.1 13.2 9.5 65 3.4 ENE 15 20 8 11 1020.5 1020.5 0.0
04/02:00pm 15.7 12.6 8.9 64 3.5 ENE 15 24 8 13 1020.5 1020.5 0.0
04/01:30pm 16.4 14.4 8.6 60 4.0 SE 9 20 5 11 1020.7 1020.7 0.0
04/01:00pm 16.5 14.1 6.9 53 4.7 ENE 9 13 5 7 1021.0 1021.0 0.0
04/12:30pm 15.8 14.0 8.1 60 3.9 SE 7 15 4 8 1021.5 1021.5 0.0
04/12:00pm 16.1 14.3 7.3 56 4.4 E 6 9 3 5 1021.9 1021.9 0.0
04/11:30am 15.3 12.9 7.1 58 4.0 ESE 9 19 5 10 1022.2 1022.2 0.0
04/11:00am 15.0 13.2 8.0 63 3.5 SE 7 15 4 8 1022.5 1022.5 0.0
04/10:30am 14.6 12.5 8.1 65 3.3 S 9 15 5 8 1022.7 1022.7 0.0
04/10:00am 13.9 11.0 8.3 69 2.8 SSE 13 19 7 10 1022.9 1022.9 0.0
04/09:30am 14.0 12.5 8.6 70 2.7 SE 6 9 3 5 1023.1 1023.1 0.0
04/09:00am 12.3 12.4 10.0 86 1.2 CALM 0 0 0 0 1023.3 1023.3 5.0
04/08:30am 11.5 11.3 9.1 85 1.2 CALM 0 0 0 0 1023.3 1023.3 5.0
04/08:00am 10.3 9.6 8.6 89 0.8 ENE 2 7 1 4 1023.1 1023.1 5.0
04/07:30am 8.9 8.6 8.5 97 0.2 CALM 0 0 0 0 1022.8 1022.8 5.0
04/07:00am 7.2 5.7 6.9 98 0.1 ENE 4 9 2 5 1022.4 1022.4 5.0
04/06:30am 7.1 5.2 6.8 98 0.1 SSW 6 7 3 4 1022.0 1022.0 5.0
04/06:00am 7.6 6.9 6.9 95 0.3 CALM 0 0 0 0 1021.7 1021.7 5.0
04/05:30am 8.2 7.6 7.6 96 0.3 CALM 0 0 0 0 1021.3 1021.3 5.0
04/05:00am 8.2 6.8 7.3 94 0.4 NNE 4 7 2 4 1021.0 1021.0 5.0
04/04:30am 8.3 6.6 7.5 95 0.4 SSE 6 7 3 4 1020.7 1020.7 5.0
04/04:00am 8.5 6.7 7.9 96 0.3 S 7 9 4 5 1020.5 1020.5 5.0
04/03:30am 9.1 8.3 8.2 94 0.4 SSW 2 9 1 5 1020.2 1020.2 5.0
04/03:00am 10.4 10.3 9.5 94 0.4 CALM 0 0 0 0 1020.2 1020.2 5.0
04/02:30am 10.6 10.4 9.0 90 0.8 CALM 0 0 0 0 1020.0 1020.0 5.0
04/02:00am 11.4 11.3 9.5 88 1.0 CALM 0 0 0 0 1019.9 1019.9 5.0
04/01:30am 11.9 10.6 9.8 87 1.1 WSW 7 9 4 5 1020.2 1020.2 5.0
04/01:00am 12.2 10.9 9.2 82 1.5 SSW 6 9 3 5 1020.1 1020.1 5.0
04/12:30am 12.0 9.4 9.4 84 1.3 SW 13 17 7 9 1019.6 1019.6 5.0
04/12:00am 11.8 9.2 9.5 86 1.2 SSW 13 19 7 10 1019.1 1019.1 5.0
 
Date/Time
EST
Temp
°C
App
Temp
°C
Dew
Point
Rel
Hum
%
Delta-T
°C
Wind Press
QNH
hPa
Press
MSL
hPa
Rain
since 9 am
mm
Dir
 
Spd
km/h
Gust
km/h
Spd
kts
Gust
kts
03/11:30pm 11.8 9.7 9.9 88 1.0 SSW 11 15 6 8 1018.8 1018.8 5.0
03/11:00pm 11.9 10.2 10.0 88 1.0 SW 9 11 5 6 1018.6 1018.6 5.0
03/10:30pm 12.0 10.4 10.2 89 0.9 WSW 9 11 5 6 1018.2 1018.2 5.0
03/10:00pm 12.1 10.9 10.3 89 0.9 SW 7 9 4 5 1017.7 1017.7 5.0
03/09:30pm 12.1 11.1 11.0 93 0.6 W 7 11 4 6 1017.6 1017.6 5.0
03/09:00pm 12.3 11.2 10.7 90 0.8 W 7 9 4 5 1017.1 1017.1 5.0
03/08:30pm 12.5 11.2 11.1 91 0.7 SSW 9 15 5 8 1016.8 1016.8 5.0
03/08:00pm 12.5 11.2 11.4 93 0.6 SSW 9 15 5 8 1016.1 1016.1 5.0
03/07:30pm 12.4 10.4 11.5 94 0.5 SSW 13 17 7 9 1015.3 1015.4 4.8
03/07:00pm 12.5 9.1 11.2 92 0.7 SW 20 28 11 15 1014.6 1014.6 3.0
03/06:30pm 13.5 9.6 10.7 83 1.5 SW 22 30 12 16 1013.8 1013.8 1.2
03/06:00pm 14.2 10.8 10.4 78 2.0 SW 19 28 10 15 1012.9 1012.9 1.2
03/05:30pm 14.3 11.4 10.9 80 1.8 SW 17 26 9 14 1012.1 1012.1 1.2
03/05:00pm 14.3 10.7 10.5 78 2.0 SW 20 28 11 15 1011.1 1011.1 1.2
03/04:30pm 14.4 12.0 10.0 75 2.3 SW 13 19 7 10 1010.3 1010.3 1.2
03/04:00pm 13.7 11.9 10.9 83 1.5 W 11 17 6 9 1009.7 1009.7 1.2
03/03:30pm 13.2 13.4 10.7 85 1.3 CALM 0 0 0 0 1009.5 1009.5 1.0
03/03:00pm 13.9 13.0 10.7 81 1.7 W 6 7 3 4 1008.8 1008.8 1.0
03/02:30pm 14.6 11.6 9.2 70 2.8 SSW 15 17 8 9 1008.5 1008.5 0.8
03/02:00pm 14.5 11.5 9.1 70 2.8 SSW 15 20 8 11 1007.9 1007.9 0.8
03/01:30pm 14.6 9.9 9.2 70 2.8 SW 24 32 13 17 1007.5 1007.5 0.8
03/01:00pm 14.6 11.0 10.0 74 2.4 WSW 19 24 10 13 1007.3 1007.3 0.8
03/12:30pm 14.4 10.8 10.6 78 2.0 WSW 20 28 11 15 1007.2 1007.2 0.8
03/12:00pm 13.9 10.7 9.9 77 2.1 WSW 17 26 9 14 1007.2 1007.2 0.8
03/11:30am 13.1 11.0 11.2 88 1.0 WSW 13 17 7 9 1007.2 1007.2 0.8
03/11:00am 12.0 12.6 11.8 99 0.1 CALM 0 7 0 4 1007.4 1007.4 0.8
03/10:30am 11.3 11.3 11.1 99 0.1 SSW 2 9 1 5 1007.4 1007.4 0.8
03/10:00am 10.4 10.5 10.2 99 0.1 CALM 0 0 0 0 1007.2 1007.2 0.4
03/09:30am 10.2 10.3 10.0 99 0.1 CALM 0 4 0 2 1007.2 1007.2 0.0
03/09:00am 9.8 9.8 9.7 99 0.1 CALM 0 6 0 3 1006.7 1006.7 -
03/08:30am 9.5 9.4 9.4 99 0.0 CALM 0 0 0 0 1006.3 1006.3 -
03/08:00am 9.5 9.4 9.4 99 0.0 CALM 0 0 0 0 1005.8 1005.8 -
03/07:30am 9.2 9.0 9.1 99 0.0 CALM 0 0 0 0 1005.5 1005.5 -
03/07:00am 9.0 7.4 8.9 99 0.0 SSW 7 9 4 5 1005.0 1005.0 -
03/06:30am 8.9 6.9 8.8 99 0.0 SSW 9 11 5 6 1004.7 1004.7 -
03/06:00am 9.1 8.9 9.0 99 0.0 CALM 0 6 0 3 1004.9 1004.9 -
03/05:30am 9.1 7.2 9.0 99 0.0 NNW 9 13 5 7 1004.9 1004.9 -
03/05:00am 8.7 6.7 8.6 99 0.0 NNW 9 11 5 6 1004.7 1004.7 -
03/04:30am 8.7 7.1 8.6 99 0.0 SW 7 15 4 8 1004.7 1004.7 -
03/04:00am 8.6 7.9 8.5 99 0.0 SW 2 7 1 4 1005.1 1005.1 -
03/03:30am 8.4 8.0 8.3 99 0.0 CALM 0 0 0 0 1005.5 1005.5 -
03/03:00am 8.4 8.0 8.1 98 0.1 CALM 0 0 0 0 1005.8 1005.8 2.0
03/02:30am 8.3 6.5 8.0 98 0.1 S 7 7 4 4 1006.1 1006.1 -
03/02:00am 8.5 6.9 8.2 98 0.1 N 6 9 3 5 1006.5 1006.5 -
03/01:30am 8.1 6.8 7.8 98 0.1 WNW 4 11 2 6 1007.1 1007.1 -
03/01:00am 7.9 6.9 7.5 97 0.2 SSE 2 9 1 5 1007.6 1007.6 -
03/12:30am 8.1 7.5 7.5 96 0.3 CALM 0 0 0 0 1007.6 1007.6 -
03/12:00am 8.3 7.8 7.9 97 0.2 CALM 0 0 0 0 1007.9 1007.9 -
 
Date/Time
EST
Temp
°C
App
Temp
°C
Dew
Point
Rel
Hum
%
Delta-T
°C
Wind Press
QNH
hPa
Press
MSL
hPa
Rain
since 9 am
mm
Dir
 
Spd
km/h
Gust
km/h
Spd
kts
Gust
kts
02/11:30pm 8.2 7.6 7.4 95 0.4 CALM 0 0 0 0 1007.9 1007.9 -
02/11:00pm 8.5 7.6 7.6 94 0.4 NNE 2 7 1 4 1008.3 1008.3 -
02/10:30pm 8.7 8.2 7.8 94 0.4 CALM 0 0 0 0 1008.5 1008.5 -
02/10:00pm 8.8 8.3 7.7 93 0.5 CALM 0 0 0 0 1008.7 1008.7 -
02/09:30pm 9.0 8.4 7.5 90 0.7 CALM 0 0 0 0 1009.1 1009.1 -
02/09:00pm 9.6 8.8 8.2 91 0.7 SSW 2 6 1 3 1009.3 1009.3 0.0
02/08:30pm 9.6 9.1 7.9 89 0.8 CALM 0 0 0 0 1009.5 1009.5 -
02/08:00pm 10.4 9.6 8.2 86 1.1 SSW 2 9 1 5 1009.5 1009.5 -
02/07:30pm 10.9 10.6 8.7 86 1.1 CALM 0 0 0 0 1009.7 1009.7 -
02/07:00pm 10.8 8.9 7.5 80 1.6 N 7 9 4 5 1009.8 1009.8 -
02/06:30pm 12.0 11.7 8.5 79 1.7 CALM 0 7 0 4 1009.4 1009.4 -
02/06:00pm 12.8 11.2 8.7 76 2.1 NNE 7 9 4 5 1009.8 1009.8 -
02/05:30pm 13.8 12.8 9.0 73 2.4 ENE 4 9 2 5 1009.9 1009.9 -
02/05:00pm 13.9 11.1 8.5 70 2.7 ENE 13 17 7 9 1009.8 1009.8 -
02/04:30pm 14.7 12.0 8.9 68 3.0 ENE 13 19 7 10 1009.8 1009.8 -
02/04:00pm 15.4 12.3 8.9 65 3.3 ENE 15 19 8 10 1010.0 1010.0 -
02/03:30pm 15.7 11.6 8.0 60 3.9 ENE 19 24 10 13 1009.9 1009.9 -
02/03:00pm 17.0 12.3 7.9 55 4.6 NE 22 28 12 15 1010.1 1010.1 -
02/02:30pm 17.0 12.7 7.9 55 4.6 NE 20 28 11 15 1010.4 1010.4 -
02/02:00pm 17.2 12.4 7.5 53 4.9 NE 22 32 12 17 1010.7 1010.7 -
02/01:30pm 18.2 - 10.1 59 4.3 - - - - - 1011.1 1011.1 -
02/01:00pm - - - - - - - - - - - - -
02/12:30pm - - - - - - - - - - - - -
02/12:00pm - - - - - - - - - - - - -
02/11:30am - - - - - - - - - - - - -
02/11:00am - - - - - - - - - - - - -
02/10:30am - - - - - - - - - - - - -
02/10:00am - - - - - - - - - - - - -
02/09:30am - - - - - - - - - - - - -
02/09:00am - - - - - - - - - - - - -

Other Formats:

Comma delimited format used in spreadsheet applications
http://www.bom.gov.au/fwo/IDN60801/IDN60801.95931.axf

JavaScript Object Notation format (JSON) in row-major order
http://www.bom.gov.au/fwo/IDN60801/IDN60801.95931.json